createdAt,value
2022-08-23T00:02:04.075Z,11.52
2022-08-23T00:04:41.236Z,10.95
2022-08-23T00:07:30.354Z,12.52
2022-08-23T00:09:59.696Z,11.07
2022-08-23T00:12:29.015Z,11.95
2022-08-23T00:14:59.528Z,11.13
2022-08-23T00:17:33.565Z,11.15
2022-08-23T00:20:05.053Z,11.55
2022-08-23T00:22:34.381Z,11.30
2022-08-23T00:25:03.796Z,12.48
2022-08-23T00:27:34.726Z,11.23
2022-08-23T00:30:05.591Z,11.65
2022-08-23T00:32:37.521Z,10.80
2022-08-23T00:35:08.340Z,12.00
2022-08-23T00:37:38.185Z,10.95
2022-08-23T00:40:11.007Z,10.70
2022-08-23T00:43:03.317Z,11.75
2022-08-23T00:46:23.259Z,11.13
2022-08-23T00:48:53.159Z,10.43
2022-08-23T00:51:53.561Z,10.88
2022-08-23T00:54:25.756Z,11.35
2022-08-23T00:56:57.426Z,10.35
2022-08-23T00:59:27.371Z,11.90
2022-08-23T01:01:57.461Z,10.33
2022-08-23T01:04:29.630Z,10.90
2022-08-23T01:07:08.101Z,10.48
2022-08-23T01:09:38.373Z,10.18
2022-08-23T01:12:32.745Z,11.23
2022-08-23T01:15:27.524Z,10.07
2022-08-23T01:18:17.349Z,11.07
2022-08-23T01:21:14.833Z,10.57
2022-08-23T01:23:53.358Z,10.65
2022-08-23T01:26:24.635Z,11.27
2022-08-23T01:28:55.527Z,10.93
2022-08-23T01:31:25.188Z,10.45
2022-08-23T01:34:09.579Z,10.25
2022-08-23T01:36:39.000Z,11.25
2022-08-23T01:39:11.796Z,10.77
2022-08-23T01:41:42.386Z,10.87
2022-08-23T01:44:11.714Z,10.70
2022-08-23T01:46:41.168Z,11.13
2022-08-23T01:49:10.600Z,10.55
2022-08-23T01:51:40.092Z,10.40
2022-08-23T01:54:09.362Z,12.97
2022-08-23T01:56:39.520Z,10.85
2022-08-23T01:59:10.436Z,11.77
2022-08-23T02:01:40.315Z,11.88
2022-08-23T02:04:09.806Z,11.00
2022-08-23T02:06:39.081Z,10.97
2022-08-23T02:09:17.541Z,11.77
2022-08-23T02:11:48.495Z,11.15
2022-08-23T02:14:23.806Z,13.02
2022-08-23T02:17:03.457Z,12.27
2022-08-23T02:19:35.706Z,12.10
2022-08-23T02:22:05.957Z,11.88
2022-08-23T02:24:41.153Z,13.02
2022-08-23T02:27:10.682Z,12.02
2022-08-23T02:29:41.230Z,11.80
2022-08-23T02:32:15.497Z,12.13
2022-08-23T02:34:45.478Z,12.30
2022-08-23T02:37:33.941Z,11.98
2022-08-23T02:40:03.410Z,12.20
2022-08-23T02:42:33.175Z,12.40
2022-08-23T02:45:02.402Z,12.57
2022-08-23T02:47:31.637Z,12.73
2022-08-23T02:50:00.899Z,12.77
2022-08-23T02:52:30.180Z,11.80
2022-08-23T02:54:59.492Z,12.43
2022-08-23T02:57:29.898Z,12.87
2022-08-23T03:00:00.866Z,13.02
2022-08-23T03:02:30.726Z,12.20
2022-08-23T03:05:00.074Z,12.82
2022-08-23T03:07:29.390Z,12.35
2022-08-23T03:09:58.610Z,12.60
2022-08-23T03:12:30.586Z,13.63
2022-08-23T03:15:00.118Z,12.80
2022-08-23T03:17:29.668Z,12.73
2022-08-23T03:19:59.105Z,12.68
2022-08-23T03:22:28.421Z,13.50
2022-08-23T03:24:57.717Z,12.77
2022-08-23T03:27:26.962Z,12.77
2022-08-23T03:29:56.164Z,13.23
2022-08-23T03:32:25.504Z,13.18
2022-08-23T03:34:55.870Z,12.40
2022-08-23T03:37:25.497Z,13.07
2022-08-23T03:39:55.221Z,13.43
2022-08-23T03:42:28.541Z,12.35
2022-08-23T03:45:02.252Z,13.75
2022-08-23T03:47:31.958Z,12.83
2022-08-23T03:50:01.410Z,14.15
2022-08-23T03:52:30.770Z,12.90
2022-08-23T03:55:00.349Z,13.52
2022-08-23T03:57:29.523Z,13.27
2022-08-23T04:00:01.162Z,12.93
2022-08-23T04:02:30.715Z,13.48
2022-08-23T04:05:00.677Z,14.07
2022-08-23T04:07:30.161Z,13.32
2022-08-23T04:09:59.539Z,13.23
2022-08-23T04:12:29.064Z,13.53
2022-08-23T04:14:58.786Z,13.63
2022-08-23T04:17:31.049Z,11.63
2022-08-23T04:20:01.787Z,14.30
2022-08-23T04:22:31.068Z,14.10
2022-08-23T04:25:00.443Z,13.63
2022-08-23T04:27:30.180Z,13.00
2022-08-23T04:30:02.776Z,13.50
2022-08-23T04:32:32.015Z,13.80
2022-08-23T04:35:06.511Z,14.15
2022-08-23T04:37:36.683Z,14.00
2022-08-23T04:40:25.075Z,13.57
2022-08-23T04:42:54.472Z,13.35
2022-08-23T04:45:24.004Z,13.57
2022-08-23T04:47:53.310Z,13.00
2022-08-23T04:50:23.273Z,13.57
2022-08-23T04:52:52.408Z,13.25
2022-08-23T04:55:21.550Z,14.25
2022-08-23T04:57:50.911Z,14.18
2022-08-23T05:00:21.642Z,13.35
2022-08-23T05:02:56.767Z,13.63
2022-08-23T05:05:26.148Z,14.02
2022-08-23T05:07:56.468Z,14.32
2022-08-23T05:10:25.910Z,14.10
2022-08-23T05:12:55.191Z,14.68
2022-08-23T05:15:25.275Z,14.53
2022-08-23T05:17:54.700Z,13.95
2022-08-23T05:20:24.787Z,14.27
2022-08-23T05:22:54.449Z,14.68
2022-08-23T05:25:25.451Z,14.10
2022-08-23T05:27:58.392Z,14.57
2022-08-23T05:30:28.557Z,14.30
2022-08-23T05:33:00.052Z,14.10
2022-08-23T05:35:31.631Z,13.52
2022-08-23T05:38:01.744Z,15.00
2022-08-23T05:40:31.338Z,15.33
2022-08-23T05:43:01.766Z,13.75
2022-08-23T05:45:30.981Z,14.20
2022-08-23T05:48:00.242Z,14.65
2022-08-23T05:50:29.713Z,14.30
2022-08-23T05:53:01.601Z,14.67
2022-08-23T05:55:34.722Z,14.38
2022-08-23T05:58:04.295Z,13.65
2022-08-23T06:00:38.017Z,13.57
2022-08-23T06:03:09.953Z,14.20
2022-08-23T06:05:43.494Z,14.37
2022-08-23T06:08:12.840Z,13.40
2022-08-23T06:10:42.579Z,16.17
2022-08-23T06:13:11.969Z,14.27
2022-08-23T06:15:46.151Z,14.18
2022-08-23T06:18:15.823Z,14.40
2022-08-23T06:20:45.171Z,13.98
2022-08-23T06:23:14.609Z,14.40
2022-08-23T06:25:43.879Z,15.10
2022-08-23T06:28:15.200Z,14.45
2022-08-23T06:30:44.545Z,13.73
2022-08-23T06:33:15.733Z,14.80
2022-08-23T06:35:45.265Z,14.65
2022-08-23T06:38:15.978Z,13.73
2022-08-23T06:40:45.750Z,14.35
2022-08-23T06:43:15.112Z,13.40
2022-08-23T06:45:50.157Z,14.57
2022-08-23T06:48:25.407Z,14.45
2022-08-23T06:50:54.730Z,13.55
2022-08-23T06:53:23.875Z,14.35
2022-08-23T06:55:56.221Z,13.63
2022-08-23T06:58:27.548Z,14.73
2022-08-23T07:00:57.590Z,14.10
2022-08-23T07:03:30.914Z,13.00
2022-08-23T07:06:06.254Z,14.13
2022-08-23T07:08:35.857Z,13.80
2022-08-23T07:11:06.964Z,13.80
2022-08-23T07:13:36.487Z,13.88
2022-08-23T07:16:06.049Z,13.52
2022-08-23T07:18:35.439Z,12.95
2022-08-23T07:21:06.218Z,13.90
2022-08-23T07:23:36.594Z,13.70
2022-08-23T07:26:10.346Z,14.27
2022-08-23T07:28:40.797Z,13.63
2022-08-23T07:31:21.385Z,14.40
2022-08-23T07:33:52.203Z,14.37
2022-08-23T07:36:27.936Z,13.55
2022-08-23T07:39:06.252Z,13.48
2022-08-23T07:41:38.056Z,13.10
2022-08-23T07:44:09.947Z,13.32
2022-08-23T07:46:41.864Z,14.07
2022-08-23T07:49:12.432Z,13.73
2022-08-23T07:51:43.654Z,14.68
2022-08-23T07:54:14.202Z,15.13
2022-08-23T07:56:43.507Z,14.95
2022-08-23T07:59:13.548Z,17.40
2022-08-23T08:01:45.386Z,14.13
2022-08-23T08:04:14.816Z,13.73
2022-08-23T08:07:21.489Z,14.32
2022-08-23T08:09:51.140Z,14.43
2022-08-23T08:12:20.756Z,13.90
2022-08-23T08:14:50.061Z,14.10
2022-08-23T08:17:22.106Z,15.45
2022-08-23T08:19:53.381Z,15.00
2022-08-23T08:22:22.682Z,14.80
2022-08-23T08:24:51.874Z,13.50
2022-08-23T08:27:21.644Z,14.35
2022-08-23T08:29:51.029Z,13.73
2022-08-23T08:32:21.270Z,13.43
2022-08-23T08:34:50.672Z,14.18
2022-08-23T08:37:22.852Z,12.50
2022-08-23T08:39:53.501Z,13.00
2022-08-23T08:42:53.017Z,12.93
2022-08-23T08:45:34.297Z,14.20
2022-08-23T08:48:13.314Z,14.50
2022-08-23T08:50:49.241Z,14.43
2022-08-23T08:53:44.059Z,13.77
2022-08-23T08:56:22.475Z,13.73
2022-08-23T08:59:00.566Z,13.57
2022-08-23T09:01:31.399Z,13.52
2022-08-23T09:04:01.362Z,13.97
2022-08-23T09:06:54.451Z,13.30
2022-08-23T09:09:29.653Z,13.85
2022-08-23T09:12:16.115Z,13.38
2022-08-23T09:15:07.126Z,13.23
2022-08-23T09:18:05.108Z,13.80
2022-08-23T09:20:34.989Z,13.43
2022-08-23T09:23:21.428Z,13.43
2022-08-23T09:26:03.622Z,12.90
2022-08-23T09:28:38.096Z,13.77
2022-08-23T09:31:08.917Z,12.60
2022-08-23T09:33:44.368Z,14.18
2022-08-23T09:36:28.123Z,12.25
2022-08-23T09:38:57.901Z,12.65
2022-08-23T09:41:38.066Z,12.25
2022-08-23T09:44:11.096Z,13.70
2022-08-23T09:46:43.138Z,11.70
2022-08-23T09:49:27.721Z,12.02
2022-08-23T09:51:58.709Z,13.07
2022-08-23T09:54:38.143Z,11.40
2022-08-23T09:57:13.223Z,13.07
2022-08-23T09:59:48.665Z,12.13
2022-08-23T10:02:25.167Z,11.77
2022-08-23T10:05:04.251Z,13.25
2022-08-23T10:07:42.961Z,11.55
2022-08-23T10:10:27.717Z,13.60
2022-08-23T10:12:58.322Z,11.63
2022-08-23T10:15:54.797Z,11.98
2022-08-23T10:18:30.178Z,11.82
2022-08-23T10:21:03.029Z,11.52
2022-08-23T10:23:38.143Z,12.93
2022-08-23T10:26:09.973Z,11.57
2022-08-23T10:29:42.851Z,11.55
2022-08-23T10:32:55.854Z,12.50
2022-08-23T10:35:51.738Z,10.98
2022-08-23T10:38:49.940Z,11.90
2022-08-23T10:41:23.243Z,11.35
2022-08-23T10:44:19.544Z,11.25
2022-08-23T10:47:21.145Z,11.85
2022-08-23T10:49:52.978Z,11.70
2022-08-23T10:52:45.349Z,11.17
2022-08-23T10:55:37.017Z,12.48
2022-08-23T10:58:08.512Z,10.32
2022-08-23T11:00:39.134Z,12.52
2022-08-23T11:03:31.281Z,12.65
2022-08-23T11:06:26.713Z,11.67
2022-08-23T11:09:33.150Z,11.60
2022-08-23T11:12:05.762Z,11.35
2022-08-23T11:15:00.042Z,11.35
2022-08-23T11:17:31.086Z,11.10
2022-08-23T11:20:04.091Z,12.40
2022-08-23T11:22:37.759Z,10.65
2022-08-23T11:25:19.320Z,11.55
2022-08-23T11:27:48.831Z,11.30
2022-08-23T11:30:46.726Z,11.50
2022-08-23T11:33:20.905Z,10.73
2022-08-23T11:36:14.087Z,12.85
2022-08-23T11:38:49.138Z,11.38
2022-08-23T11:41:21.491Z,10.57
2022-08-23T11:44:09.192Z,12.38
2022-08-23T11:47:02.495Z,11.87
2022-08-23T11:49:31.765Z,16.95
2022-08-23T11:52:25.299Z,13.75
2022-08-23T11:54:57.450Z,14.30
2022-08-23T11:58:02.234Z,12.73
2022-08-23T12:01:00.663Z,14.70
2022-08-23T12:03:37.486Z,12.23
2022-08-23T12:06:50.739Z,12.73
2022-08-23T12:09:28.197Z,10.95
2022-08-23T12:11:57.422Z,12.88
2022-08-23T12:14:44.682Z,11.03
2022-08-23T12:17:31.881Z,12.48
2022-08-23T12:20:16.376Z,10.48
2022-08-23T12:23:02.237Z,10.88
2022-08-23T12:25:33.725Z,11.02
2022-08-23T12:28:13.079Z,11.57
2022-08-23T12:30:59.742Z,9.70
2022-08-23T12:34:18.507Z,9.93
2022-08-23T12:36:51.309Z,9.63
2022-08-23T12:39:32.050Z,10.10
2022-08-23T12:42:21.151Z,9.27
2022-08-23T12:45:24.812Z,10.65
2022-08-23T12:48:02.154Z,10.60
2022-08-23T12:50:47.111Z,8.82
2022-08-23T12:53:22.536Z,10.32
2022-08-23T12:55:53.993Z,12.77
2022-08-23T12:58:33.443Z,11.52
2022-08-23T13:01:10.590Z,13.60
2022-08-23T13:03:47.442Z,10.35
2022-08-23T13:06:23.995Z,12.25
2022-08-23T13:09:33.187Z,11.93
2022-08-23T13:12:03.669Z,11.15
2022-08-23T13:14:42.631Z,10.82
2022-08-23T13:17:29.472Z,12.23
2022-08-23T13:20:22.263Z,11.88
2022-08-23T13:23:18.825Z,12.60
2022-08-23T13:25:49.888Z,13.50
2022-08-23T13:28:32.849Z,12.57
2022-08-23T13:31:05.837Z,11.88
2022-08-23T13:33:40.939Z,14.48
2022-08-23T13:36:18.405Z,12.47
2022-08-23T13:38:52.165Z,12.45
2022-08-23T13:41:39.282Z,13.73
2022-08-23T13:44:16.913Z,13.43
2022-08-23T13:46:50.454Z,13.98
2022-08-23T13:49:26.121Z,11.67
2022-08-23T13:55:10.636Z,13.65
2022-08-23T13:57:42.649Z,14.23
2022-08-23T14:00:19.193Z,15.00
2022-08-23T14:02:50.438Z,13.83
2022-08-23T14:05:25.150Z,14.68
2022-08-23T14:07:54.654Z,13.52
2022-08-23T14:10:25.455Z,14.68
2022-08-23T14:12:56.266Z,12.25
2022-08-23T14:15:54.593Z,12.83
2022-08-23T14:18:15.225Z,17.27
2022-08-23T14:20:46.271Z,13.23
2022-08-23T14:23:17.533Z,15.13
2022-08-23T14:25:47.334Z,14.52
2022-08-23T14:28:17.850Z,14.43
2022-08-23T14:30:47.290Z,19.25
2022-08-23T14:33:16.968Z,13.48
2022-08-23T14:35:47.331Z,12.93
2022-08-23T14:38:19.396Z,15.60
2022-08-23T14:40:59.487Z,11.37
2022-08-23T14:43:30.698Z,12.43
2022-08-23T14:46:00.540Z,17.63
2022-08-23T14:48:31.270Z,14.52
2022-08-23T14:51:03.939Z,14.20
2022-08-23T14:53:37.513Z,14.47
2022-08-23T14:56:20.434Z,15.90
2022-08-23T14:58:51.712Z,15.18
2022-08-23T15:01:22.874Z,14.95
2022-08-23T15:03:52.833Z,16.85
2022-08-23T15:06:23.883Z,14.53
2022-08-23T15:08:53.534Z,13.77
2022-08-23T15:14:13.248Z,17.10
2022-08-23T15:16:45.367Z,16.65
2022-08-23T15:19:15.237Z,17.07
2022-08-23T15:21:44.441Z,14.65
2022-08-23T15:24:16.633Z,17.27
2022-08-23T15:26:46.635Z,16.52
2022-08-23T15:29:19.085Z,17.85
2022-08-23T15:31:51.431Z,14.93
2022-08-23T15:34:21.666Z,16.00
2022-08-23T15:36:53.029Z,16.88
2022-08-23T15:39:23.994Z,17.92
2022-08-23T15:41:55.520Z,17.00
2022-08-23T15:44:25.297Z,15.57
2022-08-23T15:46:55.121Z,20.08
2022-08-23T15:49:25.227Z,14.18
2022-08-23T15:51:54.482Z,17.27
2022-08-23T15:54:25.260Z,17.38
2022-08-23T15:56:55.544Z,17.93
2022-08-23T15:59:28.986Z,19.23
2022-08-23T16:01:58.606Z,17.73
2022-08-23T16:04:28.038Z,18.00
2022-08-23T16:07:10.293Z,17.63
2022-08-23T16:09:40.132Z,18.33
2022-08-23T16:12:09.844Z,17.23
2022-08-23T16:14:40.625Z,17.75
2022-08-23T16:17:13.357Z,19.15
2022-08-23T16:19:44.234Z,17.40
2022-08-23T16:22:14.587Z,23.10
2022-08-23T16:24:58.753Z,19.23
2022-08-23T16:27:31.353Z,19.38
2022-08-23T16:30:00.725Z,20.73
2022-08-23T16:32:30.301Z,21.25
2022-08-23T16:34:59.609Z,18.77
2022-08-23T16:37:28.999Z,21.48
2022-08-23T16:39:58.525Z,21.63
2022-08-23T16:42:28.813Z,22.58
2022-08-23T16:44:58.488Z,18.77
2022-08-23T16:47:29.627Z,18.40
2022-08-23T16:49:58.868Z,19.42
2022-08-23T16:52:35.000Z,18.05
2022-08-23T16:55:07.492Z,18.48
2022-08-23T16:57:36.895Z,17.13
2022-08-23T17:00:10.034Z,19.50
2022-08-23T17:02:40.605Z,19.13
2022-08-23T17:05:12.458Z,17.75
2022-08-23T17:07:44.266Z,15.73
2022-08-23T17:10:19.722Z,17.30
2022-08-23T17:12:53.101Z,17.73
2022-08-23T17:15:32.766Z,16.95
2022-08-23T17:18:02.869Z,18.15
2022-08-23T17:20:34.849Z,17.65
2022-08-23T17:23:05.597Z,15.73
2022-08-23T17:25:36.289Z,16.47
2022-08-23T17:28:06.496Z,16.10
2022-08-23T17:30:39.337Z,16.45
2022-08-23T17:33:09.876Z,20.40
2022-08-23T17:35:39.658Z,18.52
2022-08-23T17:38:09.539Z,19.33
2022-08-23T17:40:41.229Z,16.42
2022-08-23T17:43:10.878Z,16.15
2022-08-23T17:45:47.898Z,19.13
2022-08-23T17:48:18.974Z,18.40
2022-08-23T17:50:49.283Z,20.73
2022-08-23T17:53:19.979Z,22.05
2022-08-23T17:55:50.501Z,18.42
2022-08-23T17:58:21.141Z,16.13
2022-08-23T18:00:52.509Z,18.08
2022-08-23T18:03:22.639Z,20.33
2022-08-23T18:05:54.969Z,19.20
2022-08-23T18:08:24.258Z,19.15
2022-08-23T18:10:53.961Z,14.38
2022-08-23T18:13:24.761Z,13.95
2022-08-23T18:15:55.103Z,17.77
2022-08-23T18:18:24.340Z,17.58
2022-08-23T18:20:53.774Z,18.33
2022-08-23T18:23:23.018Z,16.13
2022-08-23T18:25:52.192Z,16.73
2022-08-23T18:28:21.481Z,16.63
2022-08-23T18:30:59.043Z,16.00
2022-08-23T18:33:31.681Z,15.55
2022-08-23T18:36:01.552Z,17.58
2022-08-23T18:38:36.637Z,15.75
2022-08-23T18:41:06.002Z,16.20
2022-08-23T18:43:37.511Z,17.25
2022-08-23T18:46:08.286Z,17.38
2022-08-23T18:48:37.813Z,13.77
2022-08-23T18:51:10.870Z,17.17
2022-08-23T18:53:48.018Z,17.77
2022-08-23T18:56:17.451Z,21.88
2022-08-23T18:58:47.335Z,14.98
2022-08-23T19:01:30.814Z,17.38
2022-08-23T19:04:01.674Z,16.92
2022-08-23T19:06:34.065Z,18.83
2022-08-23T19:09:03.317Z,17.40
2022-08-23T19:11:32.580Z,18.08
2022-08-23T19:14:03.363Z,14.07
2022-08-23T19:16:34.280Z,13.73
2022-08-23T19:19:03.984Z,14.80
2022-08-23T19:21:34.905Z,19.77
2022-08-23T19:24:04.435Z,15.43
2022-08-23T19:26:37.607Z,19.65
2022-08-23T19:29:10.058Z,16.15
2022-08-23T19:31:44.419Z,16.37
2022-08-23T19:34:13.775Z,16.42
2022-08-23T19:36:46.931Z,16.80
2022-08-23T19:39:19.682Z,16.30
2022-08-23T19:41:49.943Z,17.05
2022-08-23T19:44:19.340Z,17.73
2022-08-23T19:46:49.935Z,17.33
2022-08-23T19:49:19.195Z,21.38
2022-08-23T19:51:48.804Z,17.83
2022-08-23T19:54:18.035Z,16.48
2022-08-23T19:56:56.030Z,16.40
2022-08-23T19:59:36.509Z,17.08
2022-08-23T20:02:06.363Z,18.92
2022-08-23T20:04:36.221Z,18.67
2022-08-23T20:07:07.644Z,16.63
2022-08-23T20:09:37.057Z,17.03
2022-08-23T20:12:06.617Z,15.10
2022-08-23T20:14:37.086Z,16.70
2022-08-23T20:17:09.452Z,14.70
2022-08-23T20:19:39.387Z,15.55
2022-08-23T20:22:26.863Z,15.30
2022-08-23T20:24:56.317Z,14.77
2022-08-23T20:27:30.523Z,16.88
2022-08-23T20:30:02.586Z,14.38
2022-08-23T20:32:33.163Z,14.43
2022-08-23T20:35:04.043Z,14.53
2022-08-23T20:37:33.696Z,15.15
2022-08-23T20:40:03.002Z,13.20
2022-08-23T20:42:32.488Z,17.02
2022-08-23T20:45:01.733Z,14.23
2022-08-23T20:47:30.869Z,18.17
2022-08-23T20:50:00.160Z,16.98
2022-08-23T20:52:34.035Z,20.50
2022-08-23T20:55:09.570Z,19.45
2022-08-23T20:57:40.728Z,21.95
2022-08-23T21:00:12.248Z,19.07
2022-08-23T21:02:41.727Z,17.85
2022-08-23T21:05:11.312Z,19.88
2022-08-23T21:07:41.082Z,19.27
2022-08-23T21:10:11.955Z,19.55
2022-08-23T21:12:41.836Z,17.30
2022-08-23T21:15:11.791Z,15.90
2022-08-23T21:17:43.762Z,18.42
2022-08-23T21:20:17.086Z,18.05
2022-08-23T21:22:47.478Z,14.70
2022-08-23T21:25:17.117Z,12.87
2022-08-23T21:27:47.417Z,13.18
2022-08-23T21:30:18.059Z,16.95
2022-08-23T21:32:48.271Z,15.10
2022-08-23T21:35:17.794Z,14.50
2022-08-23T21:37:47.554Z,18.37
2022-08-23T21:40:16.955Z,14.50
2022-08-23T21:42:48.656Z,16.27
2022-08-23T21:45:18.149Z,16.35
2022-08-23T21:47:47.621Z,14.38
2022-08-23T21:50:17.433Z,13.87
2022-08-23T21:52:53.668Z,14.15
2022-08-23T21:55:34.432Z,17.38
2022-08-23T21:58:06.658Z,11.35
2022-08-23T22:00:37.103Z,14.35
2022-08-23T22:03:07.042Z,15.03
2022-08-23T22:05:41.643Z,12.20
2022-08-23T22:08:14.291Z,11.82
2022-08-23T22:10:52.250Z,12.30
2022-08-23T22:13:29.836Z,13.40
2022-08-23T22:15:59.235Z,12.87
2022-08-23T22:18:29.109Z,13.10
2022-08-23T22:20:59.503Z,12.65
2022-08-23T22:23:29.743Z,13.40
2022-08-23T22:26:03.173Z,16.30
2022-08-23T22:28:33.022Z,16.80
2022-08-23T22:31:07.306Z,16.42
2022-08-23T22:33:37.831Z,13.35
2022-08-23T22:36:09.931Z,14.85
2022-08-23T22:38:40.332Z,12.63
2022-08-23T22:41:09.664Z,15.37
2022-08-23T22:43:38.935Z,16.55
2022-08-23T22:46:08.668Z,13.23
2022-08-23T22:48:38.150Z,15.20
2022-08-23T22:51:19.158Z,14.68
2022-08-23T22:53:53.803Z,15.57
2022-08-23T22:56:35.375Z,14.95
2022-08-23T22:59:04.978Z,13.27
2022-08-23T23:01:39.913Z,13.18
2022-08-23T23:04:11.206Z,11.55
2022-08-23T23:06:41.222Z,9.87
2022-08-23T23:09:12.386Z,10.13
2022-08-23T23:11:42.706Z,9.82
2022-08-23T23:14:13.050Z,9.73
2022-08-23T23:16:42.871Z,9.10
2022-08-23T23:19:30.740Z,8.20
2022-08-23T23:22:00.575Z,13.77
2022-08-23T23:24:33.385Z,11.27
2022-08-23T23:27:04.015Z,11.45
2022-08-23T23:29:33.778Z,10.43
2022-08-23T23:32:03.248Z,11.23
2022-08-23T23:34:32.908Z,11.90
2022-08-23T23:37:03.050Z,10.45
2022-08-23T23:39:33.290Z,9.23
2022-08-23T23:42:03.304Z,11.02
2022-08-23T23:44:34.703Z,12.57
2022-08-23T23:47:04.572Z,9.02
2022-08-23T23:49:34.217Z,13.50
2022-08-23T23:52:05.392Z,10.95
2022-08-23T23:54:37.480Z,11.77
2022-08-23T23:57:07.933Z,9.93
2022-08-23T23:59:37.765Z,13.63
